Time;durP1;ratioP1;P1;durP2;ratioP2;P2;SDS_P1;SDS_P2;PMS_P1;PMS_P2;Temp;Humidity;BMP_temperature;BMP_pressure;BME280_temperature;BME280_humidity;BME280_pressure;Samples;Min_cycle;Max_cycle;Signal;HPM_P1;HPM_P2
2023/01/28 00:02:21;;;;;;;52.38;13.85;;;5.30;90.50;;;;;;5086700;28;20365;-56
2023/01/28 00:04:47;;;;;;;49.95;12.55;;;5.30;90.50;;;;;;5084883;28;20074;-57
2023/01/28 00:07:13;;;;;;;44.97;12.70;;;5.20;90.50;;;;;;5084846;28;20052;-56
2023/01/28 00:09:38;;;;;;;53.50;12.32;;;5.20;90.50;;;;;;5086424;28;20105;-57
2023/01/28 00:12:04;;;;;;;67.82;12.60;;;5.20;90.50;;;;;;5086146;28;20097;-57
2023/01/28 00:14:30;;;;;;;52.45;12.70;;;5.20;90.50;;;;;;5086130;28;20039;-56
2023/01/28 00:16:55;;;;;;;43.67;13.18;;;5.20;90.50;;;;;;5084725;28;20116;-67
2023/01/28 00:19:22;;;;;;;42.70;12.00;;;5.20;90.50;;;;;;5084684;28;20029;-57
2023/01/28 00:21:47;;;;;;;45.63;13.23;;;5.20;90.50;;;;;;5084901;28;20028;-56
2023/01/28 00:24:13;;;;;;;49.38;12.13;;;5.20;90.50;;;;;;5084515;28;20032;-56
2023/01/28 00:26:38;;;;;;;47.60;11.98;;;5.20;90.50;;;;;;5084499;28;20032;-56
2023/01/28 00:29:04;;;;;;;44.85;11.70;;;5.20;90.50;;;;;;5086145;28;20043;-56
2023/01/28 00:31:29;;;;;;;42.83;11.93;;;5.20;90.50;;;;;;5084472;28;20039;-56
2023/01/28 00:33:55;;;;;;;40.88;11.63;;;5.20;90.50;;;;;;5085783;28;20088;-56
2023/01/28 00:36:22;;;;;;;49.28;12.57;;;5.20;90.50;;;;;;5084450;28;20465;-56
2023/01/28 00:38:55;;;;;;;43.25;11.40;;;5.20;90.60;;;;;;5084240;28;20021;-56
2023/01/28 00:41:22;;;;;;;43.63;12.45;;;5.10;90.50;;;;;;5084751;28;20054;-57
2023/01/28 00:43:48;;;;;;;39.58;11.80;;;5.10;90.60;;;;;;5083282;28;20044;-57
2023/01/28 00:46:14;;;;;;;39.28;12.15;;;5.10;90.60;;;;;;5085654;28;20036;-55
2023/01/28 00:48:40;;;;;;;31.25;11.57;;;5.10;90.60;;;;;;5084118;28;20052;-57
2023/01/28 00:51:05;;;;;;;40.10;11.38;;;5.10;90.60;;;;;;5084697;28;20040;-57
2023/01/28 00:53:31;;;;;;;33.50;10.82;;;5.10;90.60;;;;;;5083204;28;20056;-56
2023/01/28 00:55:57;;;;;;;40.47;13.18;;;5.10;90.60;;;;;;5084236;28;20040;-56
2023/01/28 00:58:25;;;;;;;49.25;12.52;;;5.10;90.60;;;;;;5085265;28;20028;-56
2023/01/28 01:00:50;;;;;;;36.67;11.95;;;5.10;90.60;;;;;;5084299;28;20396;-57
2023/01/28 01:03:16;;;;;;;35.70;11.65;;;5.10;90.60;;;;;;5066883;28;20029;-56
2023/01/28 01:05:42;;;;;;;44.13;11.73;;;5.10;90.60;;;;;;5083786;28;20050;-56
2023/01/28 01:08:08;;;;;;;46.65;12.38;;;5.10;90.70;;;;;;5083914;28;20052;-56
2023/01/28 01:10:33;;;;;;;35.55;11.57;;;5.10;91.00;;;;;;5067002;28;20025;-56
2023/01/28 01:12:59;;;;;;;40.95;12.05;;;5.00;90.60;;;;;;5085299;28;20036;-57
2023/01/28 01:15:24;;;;;;;35.80;12.30;;;5.00;90.70;;;;;;5083683;28;20100;-56
2023/01/28 01:17:50;;;;;;;40.85;12.45;;;5.00;90.70;;;;;;5085019;28;20040;-57
2023/01/28 01:20:17;;;;;;;34.17;11.45;;;5.00;90.70;;;;;;5083999;28;20020;-56
2023/01/28 01:22:43;;;;;;;33.30;11.38;;;5.00;90.70;;;;;;5066790;28;20063;-57
2023/01/28 01:25:09;;;;;;;39.00;13.07;;;5.00;90.70;;;;;;5083559;28;20025;-57
2023/01/28 01:27:35;;;;;;;28.00;11.25;;;5.00;90.70;;;;;;5083830;28;20036;-56
2023/01/28 01:30:00;;;;;;;40.05;12.77;;;5.00;90.70;;;;;;5083371;28;20474;-56
2023/01/28 01:32:33;;;;;;;32.60;11.80;;;5.00;90.70;;;;;;5083654;28;20032;-56
2023/01/28 01:34:59;;;;;;;28.48;10.85;;;5.00;90.70;;;;;;5083333;28;20037;-57
2023/01/28 01:37:25;;;;;;;31.77;12.00;;;5.00;90.80;;;;;;5083459;28;20037;-56
2023/01/28 01:39:50;;;;;;;35.80;11.60;;;5.00;90.70;;;;;;5085030;28;20032;-57
2023/01/28 01:42:16;;;;;;;34.42;12.38;;;5.00;90.80;;;;;;5066465;28;20092;-56
2023/01/28 01:45:01;;;;;;;23.85;11.82;;;4.90;90.80;;;;;;5084757;28;20346;-56
2023/01/28 01:47:32;;;;;;;32.53;12.60;;;5.00;90.80;;;;;;5083185;28;20045;-57
2023/01/28 01:49:59;;;;;;;30.85;12.30;;;4.90;90.80;;;;;;5084759;28;20293;-56
2023/01/28 01:52:27;;;;;;;35.60;13.05;;;4.90;90.70;;;;;;5083440;28;20035;-56
2023/01/28 01:54:54;;;;;;;29.58;11.32;;;4.90;90.70;;;;;;5083894;28;20484;-56
2023/01/28 01:57:26;;;;;;;29.33;10.98;;;4.90;90.80;;;;;;5070423;28;20033;-56
2023/01/28 01:59:52;;;;;;;32.15;11.95;;;4.90;90.80;;;;;;5087363;28;20076;-57
2023/01/28 02:02:17;;;;;;;28.52;11.45;;;4.90;90.70;;;;;;5088594;28;20557;-57
2023/01/28 02:04:43;;;;;;;28.63;12.45;;;4.90;90.80;;;;;;5088758;28;20047;-56
2023/01/28 02:07:10;;;;;;;33.78;12.02;;;4.90;90.80;;;;;;5088591;28;20032;-56
2023/01/28 02:09:37;;;;;;;27.13;12.15;;;4.90;90.80;;;;;;5087048;28;20440;-56
2023/01/28 02:12:04;;;;;;;25.25;12.70;;;4.90;90.80;;;;;;5070582;28;20491;-57
2023/01/28 02:14:31;;;;;;;32.45;11.07;;;4.90;90.80;;;;;;5070131;28;20118;-57
2023/01/28 02:16:58;;;;;;;26.15;11.35;;;4.90;90.80;;;;;;5086935;28;20032;-57
2023/01/28 02:19:26;;;;;;;25.70;11.32;;;4.90;90.80;;;;;;5086746;28;20035;-56
2023/01/28 02:22:19;;;;;;;29.55;11.23;;;4.90;90.80;;;;;;5086964;28;20102;-56
2023/01/28 02:24:52;;;;;;;37.25;12.77;;;4.90;90.80;;;;;;5088110;28;20439;-56
2023/01/28 02:27:27;;;;;;;29.02;11.80;;;4.90;90.90;;;;;;5086870;28;20029;-56
2023/01/28 02:29:59;;;;;;;31.70;12.55;;;4.80;90.80;;;;;;5088201;28;20044;-57
2023/01/28 02:32:34;;;;;;;24.52;11.32;;;4.90;90.90;;;;;;5069818;28;20033;-57
2023/01/28 02:35:17;;;;;;;29.85;12.10;;;4.80;90.80;;;;;;5086486;28;20046;-56
2023/01/28 02:37:43;;;;;;;21.58;10.57;;;4.80;90.90;;;;;;5069684;28;20032;-56
2023/01/28 02:40:10;;;;;;;26.45;11.50;;;4.80;90.90;;;;;;5087973;28;20025;-57
2023/01/28 02:42:36;;;;;;;25.77;10.95;;;4.80;90.90;;;;;;5069738;28;20064;-56
2023/01/28 02:45:06;;;;;;;25.92;11.15;;;4.80;90.90;;;;;;5086460;28;20020;-56
2023/01/28 02:50:16;;;;;;;26.98;12.00;;;4.80;90.90;;;;;;5086817;28;20039;-57
2023/01/28 02:55:40;;;;;;;22.33;11.45;;;4.80;90.90;;;;;;5086773;28;20039;-57
2023/01/28 02:58:19;;;;;;;23.90;11.25;;;4.80;90.90;;;;;;5085003;28;20035;-56
2023/01/28 03:00:47;;;;;;;22.10;11.63;;;4.70;90.90;;;;;;5085517;28;20025;-56
2023/01/28 03:03:36;;;;;;;22.90;11.50;;;4.80;91.00;;;;;;5085109;28;20102;-56
2023/01/28 03:06:05;;;;;;;27.20;11.35;;;4.70;90.90;;;;;;5084729;28;20039;-57
2023/01/28 03:36:47;;;;;;;20.98;11.48;;;4.70;91.00;;;;;;5084501;28;20427;-56
2023/01/28 03:39:12;;;;;;;26.25;12.27;;;4.70;91.00;;;;;;5084638;28;20048;-56
2023/01/28 03:41:38;;;;;;;24.02;11.82;;;4.70;91.00;;;;;;5086063;28;20029;-56
2023/01/28 03:46:48;;;;;;;21.70;12.45;;;4.70;91.00;;;;;;5084717;28;20479;-56
2023/01/28 03:49:15;;;;;;;20.83;11.75;;;4.70;91.00;;;;;;5047858;28;1059159;-56
2023/01/28 03:51:40;;;;;;;19.48;11.80;;;4.70;91.00;;;;;;5086980;28;20029;-56
2023/01/28 03:54:06;;;;;;;25.33;11.65;;;4.60;91.30;;;;;;5085567;28;20111;-56
2023/01/28 03:56:36;;;;;;;21.48;10.95;;;4.70;91.10;;;;;;5068200;28;20033;-56
2023/01/28 03:59:02;;;;;;;17.02;11.00;;;4.60;91.10;;;;;;5085097;28;20042;-56
2023/01/28 04:01:28;;;;;;;19.58;11.05;;;4.70;91.10;;;;;;5085286;28;20054;-56
2023/01/28 04:03:53;;;;;;;20.30;12.23;;;4.60;91.10;;;;;;5086523;28;20092;-56
2023/01/28 04:06:19;;;;;;;18.85;12.23;;;4.70;91.10;;;;;;5085226;28;20078;-56
2023/01/28 04:08:47;;;;;;;19.83;11.45;;;4.70;91.10;;;;;;5084770;28;20552;-56
2023/01/28 04:11:18;;;;;;;17.48;11.00;;;4.70;91.10;;;;;;5086304;28;20035;-56
2023/01/28 04:13:44;;;;;;;20.25;11.82;;;4.60;91.10;;;;;;5084941;28;20035;-56
2023/01/28 04:16:10;;;;;;;17.33;11.20;;;4.60;91.20;;;;;;5084784;28;20051;-56
2023/01/28 04:18:36;;;;;;;25.60;11.75;;;4.60;91.10;;;;;;5084271;28;20021;-56
2023/01/28 04:21:01;;;;;;;19.75;12.02;;;4.60;91.10;;;;;;5084709;28;20063;-56
2023/01/28 04:23:28;;;;;;;20.70;11.13;;;4.60;91.10;;;;;;5084835;28;20021;-57
2023/01/28 04:25:54;;;;;;;17.20;11.38;;;4.60;91.10;;;;;;5084621;28;20032;-56
2023/01/28 04:28:19;;;;;;;20.63;12.20;;;4.60;91.10;;;;;;5084602;28;20020;-56
2023/01/28 04:30:45;;;;;;;22.55;11.85;;;4.60;91.10;;;;;;5086069;28;20028;-57
2023/01/28 04:33:10;;;;;;;22.20;11.60;;;4.60;91.20;;;;;;5084516;28;20108;-56
2023/01/28 04:35:36;;;;;;;17.20;11.45;;;4.60;91.20;;;;;;5084161;28;20032;-57
2023/01/28 04:38:01;;;;;;;21.45;11.95;;;4.60;91.20;;;;;;5084394;28;20032;-57
2023/01/28 04:40:27;;;;;;;21.40;11.27;;;4.60;91.10;;;;;;5084432;28;20021;-59
2023/01/28 04:42:56;;;;;;;15.70;10.48;;;4.60;91.20;;;;;;5084461;28;20044;-56
2023/01/28 04:45:22;;;;;;;19.00;11.27;;;4.60;91.40;;;;;;5084377;28;20032;-56
2023/01/28 04:47:47;;;;;;;18.20;10.88;;;4.60;91.50;;;;;;5084291;28;20150;-56
2023/01/28 04:50:13;;;;;;;17.10;11.35;;;4.60;91.70;;;;;;5085619;28;20135;-56
2023/01/28 04:52:38;;;;;;;20.58;12.23;;;4.60;91.60;;;;;;5084651;28;20017;-56
2023/01/28 04:55:04;;;;;;;16.25;10.70;;;4.70;91.70;;;;;;5085719;28;20166;-56
2023/01/28 04:57:30;;;;;;;17.48;11.15;;;4.60;91.80;;;;;;5084182;28;20024;-56
2023/01/28 04:59:55;;;;;;;17.33;10.93;;;4.70;91.80;;;;;;5084200;28;20054;-56
2023/01/28 05:02:21;;;;;;;16.27;10.43;;;4.70;91.80;;;;;;5085341;28;20031;-56
2023/01/28 05:04:46;;;;;;;15.63;10.68;;;4.70;91.80;;;;;;5084035;28;20043;-57
2023/01/28 05:07:12;;;;;;;16.80;11.57;;;4.70;92.10;;;;;;5083996;28;20051;-63
2023/01/28 05:09:37;;;;;;;17.08;11.18;;;4.70;91.80;;;;;;5084053;28;20036;-57
2023/01/28 05:12:03;;;;;;;16.58;11.13;;;4.70;91.80;;;;;;5085478;28;20028;-56
2023/01/28 05:14:29;;;;;;;15.15;11.18;;;4.70;91.80;;;;;;5083842;28;20119;-56
2023/01/28 05:16:54;;;;;;;21.05;11.52;;;4.70;91.80;;;;;;5085364;28;20108;-56
2023/01/28 05:19:20;;;;;;;15.98;10.85;;;4.70;91.80;;;;;;5084006;28;20037;-56
2023/01/28 05:21:45;;;;;;;18.40;10.85;;;4.70;91.80;;;;;;5083854;28;20028;-56
2023/01/28 05:24:11;;;;;;;17.75;11.05;;;4.70;91.80;;;;;;5067222;28;20096;-56
2023/01/28 05:26:36;;;;;;;15.45;10.18;;;4.70;91.80;;;;;;5085283;28;20035;-56
2023/01/28 05:29:02;;;;;;;15.82;10.85;;;4.80;91.80;;;;;;5085126;28;20033;-56
2023/01/28 05:31:28;;;;;;;20.08;11.05;;;4.70;91.80;;;;;;5067023;28;20108;-57
2023/01/28 05:33:53;;;;;;;18.77;11.15;;;4.80;91.80;;;;;;5083584;28;20086;-56
2023/01/28 05:36:19;;;;;;;17.50;10.70;;;4.80;91.80;;;;;;5085544;28;20024;-57
2023/01/28 05:38:44;;;;;;;16.00;10.73;;;4.80;91.90;;;;;;5067213;28;20017;-56
2023/01/28 05:41:10;;;;;;;18.85;11.95;;;4.80;91.90;;;;;;5085178;28;20492;-56
2023/01/28 05:43:36;;;;;;;14.45;10.48;;;4.80;92.00;;;;;;5083950;28;20032;-56
2023/01/28 05:46:01;;;;;;;21.95;11.60;;;4.80;92.00;;;;;;5083717;28;20088;-56
2023/01/28 05:48:27;;;;;;;17.58;11.75;;;4.80;92.20;;;;;;5083760;28;20048;-56
2023/01/28 05:50:52;;;;;;;15.82;11.30;;;4.80;92.30;;;;;;5083853;28;20051;-56
2023/01/28 05:53:18;;;;;;;20.23;10.90;;;4.80;92.30;;;;;;5083613;28;20024;-56
2023/01/28 05:55:48;;;;;;;17.38;11.05;;;4.80;92.30;;;;;;5083457;28;20029;-56
2023/01/28 05:58:13;;;;;;;18.92;11.23;;;4.80;92.40;;;;;;5083720;28;20052;-56
2023/01/28 06:00:39;;;;;;;17.48;10.63;;;4.80;92.40;;;;;;5083706;28;20025;-56
2023/01/28 06:03:04;;;;;;;19.42;11.43;;;4.80;92.20;;;;;;5083554;28;20024;-67
2023/01/28 06:05:30;;;;;;;21.70;10.95;;;4.80;92.10;;;;;;5084783;28;20051;-56
2023/01/28 06:07:55;;;;;;;22.02;12.23;;;4.80;92.10;;;;;;5066857;28;20039;-57
2023/01/28 06:10:21;;;;;;;19.48;11.20;;;4.80;92.00;;;;;;5084586;28;20052;-56
2023/01/28 06:12:46;;;;;;;20.38;11.85;;;4.80;91.90;;;;;;5083389;28;20037;-56
2023/01/28 06:15:12;;;;;;;18.40;11.43;;;4.80;91.90;;;;;;5083388;28;20131;-56
2023/01/28 06:17:38;;;;;;;17.95;11.27;;;4.80;91.90;;;;;;5084420;28;20024;-56
2023/01/28 06:20:03;;;;;;;17.15;11.35;;;4.80;92.20;;;;;;5083357;28;20067;-56
2023/01/28 06:22:29;;;;;;;19.77;11.52;;;4.80;91.90;;;;;;5083318;28;20337;-56
2023/01/28 06:24:54;;;;;;;16.23;11.35;;;4.80;91.90;;;;;;5084632;28;20021;-56
2023/01/28 06:27:20;;;;;;;14.85;10.77;;;4.80;91.90;;;;;;5084782;28;20028;-56
2023/01/28 06:29:45;;;;;;;13.90;10.55;;;4.80;91.80;;;;;;5083132;28;20029;-56
2023/01/28 06:32:11;;;;;;;17.58;11.30;;;4.80;91.80;;;;;;5084686;28;20037;-56
2023/01/28 06:34:37;;;;;;;14.38;10.38;;;4.80;91.70;;;;;;5084708;28;20035;-56
2023/01/28 06:37:03;;;;;;;14.15;10.93;;;4.80;91.70;;;;;;5084422;28;20043;-56
2023/01/28 06:39:30;;;;;;;15.50;10.77;;;4.80;91.70;;;;;;5083269;28;20067;-56
2023/01/28 06:41:56;;;;;;;15.98;11.45;;;4.80;91.80;;;;;;5085552;28;20033;-56
2023/01/28 06:44:22;;;;;;;16.58;10.80;;;4.80;91.80;;;;;;5086674;28;20028;-57
2023/01/28 06:46:48;;;;;;;16.70;11.23;;;4.80;91.80;;;;;;5086991;28;20039;-57
2023/01/28 06:49:13;;;;;;;17.48;10.65;;;4.80;91.80;;;;;;5086560;28;20452;-56
2023/01/28 06:51:39;;;;;;;16.10;11.02;;;4.80;91.70;;;;;;5088059;28;20025;-56
2023/01/28 06:54:04;;;;;;;14.43;11.10;;;4.80;91.70;;;;;;5087998;28;20120;-56
2023/01/28 06:56:30;;;;;;;13.52;10.45;;;4.80;91.70;;;;;;5069527;28;20021;-56
2023/01/28 06:58:55;;;;;;;15.68;9.98;;;4.80;91.70;;;;;;5087875;28;20096;-56
2023/01/28 07:01:21;;;;;;;12.68;10.75;;;4.80;91.70;;;;;;5087649;28;20024;-56
2023/01/28 07:03:46;;;;;;;15.32;11.35;;;4.80;91.70;;;;;;5069637;28;20067;-57
2023/01/28 07:06:12;;;;;;;15.70;11.27;;;4.80;91.60;;;;;;5087242;28;20055;-57
2023/01/28 07:08:38;;;;;;;14.20;10.50;;;4.80;91.60;;;;;;5087490;28;20024;-56
2023/01/28 07:11:04;;;;;;;15.02;10.98;;;4.70;91.60;;;;;;5086146;28;20032;-56
2023/01/28 07:13:29;;;;;;;13.68;10.30;;;4.70;91.60;;;;;;5086089;28;20103;-56
2023/01/28 07:15:55;;;;;;;16.45;11.43;;;4.70;91.60;;;;;;5087225;28;20028;-56
2023/01/28 07:18:21;;;;;;;13.88;10.85;;;4.70;91.60;;;;;;5087697;28;20040;-56
2023/01/28 07:20:46;;;;;;;12.25;10.70;;;4.70;91.50;;;;;;5086204;28;20028;-56
2023/01/28 07:23:12;;;;;;;13.93;11.30;;;4.70;91.50;;;;;;5086555;28;20080;-55
2023/01/28 07:25:37;;;;;;;13.63;11.30;;;4.70;91.50;;;;;;5069662;28;20025;-57
2023/01/28 07:28:03;;;;;;;13.50;10.35;;;4.80;91.50;;;;;;5087266;28;20032;-57
2023/01/28 07:30:29;;;;;;;14.82;11.57;;;4.80;91.50;;;;;;5085831;28;20365;-56
2023/01/28 07:32:55;;;;;;;13.57;10.73;;;4.70;91.50;;;;;;5068913;28;20056;-56
2023/01/28 07:35:20;;;;;;;17.60;11.50;;;4.70;91.40;;;;;;5085617;28;20032;-56
2023/01/28 07:37:53;;;;;;;16.15;11.63;;;4.80;91.40;;;;;;5086124;28;20029;-56
2023/01/28 07:40:19;;;;;;;16.80;11.68;;;4.70;91.40;;;;;;5087043;28;20025;-56
2023/01/28 07:42:44;;;;;;;15.27;10.90;;;4.70;91.40;;;;;;5087242;28;20040;-56
2023/01/28 07:45:10;;;;;;;14.75;11.25;;;4.80;91.40;;;;;;5087062;28;20464;-56
2023/01/28 07:47:36;;;;;;;13.35;10.40;;;4.70;91.30;;;;;;5085427;28;20404;-56
2023/01/28 07:50:01;;;;;;;14.05;10.57;;;4.70;91.30;;;;;;5085725;28;20035;-56
2023/01/28 07:52:27;;;;;;;13.65;11.43;;;4.70;91.30;;;;;;5067519;28;20058;-56
2023/01/28 07:54:52;;;;;;;14.85;11.40;;;4.70;91.30;;;;;;5085667;28;20033;-56
2023/01/28 07:57:24;;;;;;;15.23;11.88;;;4.70;91.30;;;;;;5068644;28;20025;-56
2023/01/28 07:59:50;;;;;;;13.80;11.25;;;4.70;91.30;;;;;;5085271;28;20076;-56
2023/01/28 08:02:16;;;;;;;13.60;11.55;;;4.80;91.30;;;;;;5085690;28;20073;-56
2023/01/28 08:04:41;;;;;;;14.18;11.68;;;4.80;91.30;;;;;;5086781;28;20036;-56
2023/01/28 08:07:07;;;;;;;14.15;10.98;;;4.70;91.20;;;;;;5068360;28;20021;-56
2023/01/28 08:09:35;;;;;;;14.88;11.38;;;4.70;91.50;;;;;;5085325;28;20191;-57
2023/01/28 08:12:01;;;;;;;12.93;10.90;;;4.80;91.50;;;;;;5086235;28;20032;-56
2023/01/28 08:14:27;;;;;;;15.05;12.48;;;4.70;91.20;;;;;;5086565;28;20131;-57
2023/01/28 08:16:52;;;;;;;12.68;10.80;;;4.70;91.20;;;;;;5084767;28;20109;-56
2023/01/28 08:19:20;;;;;;;17.02;12.65;;;4.80;91.20;;;;;;5068089;28;20047;-57
2023/01/28 08:21:46;;;;;;;14.07;11.25;;;4.70;91.20;;;;;;5086386;28;20021;-56
2023/01/28 08:24:12;;;;;;;12.63;11.25;;;4.80;91.20;;;;;;5084830;28;20088;-65
2023/01/28 08:26:37;;;;;;;13.15;11.18;;;4.70;91.20;;;;;;5084779;28;20508;-56
2023/01/28 08:29:04;;;;;;;15.88;11.45;;;4.70;91.20;;;;;;5084850;28;20039;-56
2023/01/28 08:31:29;;;;;;;16.42;11.73;;;4.70;91.20;;;;;;5084582;28;20042;-56
2023/01/28 08:33:55;;;;;;;15.40;11.02;;;4.70;91.20;;;;;;5084789;28;20593;-56
2023/01/28 08:36:21;;;;;;;15.07;10.65;;;4.70;91.20;;;;;;5085747;28;20028;-57
2023/01/28 08:38:48;;;;;;;13.38;10.77;;;4.70;91.20;;;;;;5085843;28;20064;-56
2023/01/28 08:41:14;;;;;;;14.48;11.15;;;4.70;91.10;;;;;;5084358;28;20051;-56
2023/01/28 08:43:39;;;;;;;13.80;10.63;;;4.70;91.10;;;;;;5084243;28;20039;-56
2023/01/28 08:46:06;;;;;;;12.82;10.40;;;4.70;91.10;;;;;;5067779;28;20020;-56
2023/01/28 08:48:31;;;;;;;14.52;11.40;;;4.70;91.10;;;;;;5083924;28;20024;-56
2023/01/28 08:50:57;;;;;;;13.70;10.98;;;4.70;91.00;;;;;;5084107;28;20449;-58
2023/01/28 08:53:23;;;;;;;13.10;11.38;;;4.70;91.00;;;;;;5083997;28;20388;-56
2023/01/28 08:55:48;;;;;;;13.50;10.57;;;4.70;91.00;;;;;;5083700;28;20476;-56
2023/01/28 08:58:15;;;;;;;13.40;11.55;;;4.70;91.00;;;;;;5085345;28;20066;-56
2023/01/28 09:00:41;;;;;;;14.20;11.30;;;4.70;91.00;;;;;;5083927;28;20024;-56
2023/01/28 09:03:06;;;;;;;12.85;11.07;;;4.70;90.90;;;;;;5085111;28;20029;-56
2023/01/28 09:05:33;;;;;;;15.52;12.18;;;4.70;90.90;;;;;;5085104;28;20028;-56
2023/01/28 09:08:03;;;;;;;12.98;10.68;;;4.70;90.90;;;;;;5085254;28;20025;-56
2023/01/28 09:10:28;;;;;;;14.07;11.68;;;4.70;90.80;;;;;;5100250;28;20073;-56
2023/01/28 09:12:54;;;;;;;12.77;11.07;;;4.60;90.60;;;;;;5107542;28;20444;-57
2023/01/28 09:15:19;;;;;;;12.93;11.02;;;4.60;90.60;;;;;;5102482;28;20855;-56
2023/01/28 09:17:45;;;;;;;16.05;11.23;;;4.60;90.60;;;;;;5107488;28;20024;-57
2023/01/28 09:20:11;;;;;;;22.55;12.52;;;4.60;90.60;;;;;;5121243;28;20274;-56
2023/01/28 09:22:37;;;;;;;19.92;11.63;;;4.70;90.80;;;;;;5111010;28;20027;-56
2023/01/28 09:25:03;;;;;;;20.40;12.02;;;4.70;90.70;;;;;;5125010;28;20024;-57
2023/01/28 09:27:28;;;;;;;28.35;11.68;;;4.70;90.70;;;;;;5106029;28;20550;-56
2023/01/28 09:29:54;;;;;;;25.00;12.07;;;4.60;90.70;;;;;;5110733;28;20367;-56
2023/01/28 09:32:20;;;;;;;37.95;13.77;;;4.70;90.60;;;;;;5088762;28;20445;-57
2023/01/28 09:34:45;;;;;;;32.13;12.57;;;4.70;90.60;;;;;;5084500;28;20041;-57
2023/01/28 09:37:11;;;;;;;24.70;11.45;;;4.60;90.60;;;;;;5082966;28;20201;-56
2023/01/28 09:39:37;;;;;;;72.35;17.17;;;4.70;90.60;;;;;;5102727;28;20032;-56
2023/01/28 09:42:14;;;;;;;74.68;16.38;;;4.60;90.60;;;;;;5071951;28;20437;-57
2023/01/28 09:44:52;;;;;;;113.82;18.20;;;4.70;90.60;;;;;;5094221;28;20047;-56
2023/01/28 09:47:34;;;;;;;99.90;18.80;;;4.70;90.70;;;;;;5115442;28;20024;-57
2023/01/28 09:50:03;;;;;;;101.13;17.15;;;4.70;90.70;;;;;;5097515;28;20036;-57
2023/01/28 09:52:29;;;;;;;68.43;16.02;;;4.80;90.70;;;;;;5091414;28;20031;-56
2023/01/28 09:54:59;;;;;;;101.82;19.70;;;4.80;90.70;;;;;;5089851;28;20028;-57
2023/01/28 09:57:40;;;;;;;121.13;20.85;;;4.80;90.70;;;;;;5101352;28;20050;-57
2023/01/28 10:00:18;;;;;;;88.95;17.88;;;4.90;90.80;;;;;;5104222;28;20032;-58
2023/01/28 10:03:12;;;;;;;120.35;17.90;;;4.90;90.70;;;;;;5085541;28;20040;-57
2023/01/28 10:05:43;;;;;;;192.93;26.90;;;4.90;90.60;;;;;;5105222;28;20030;-57
2023/01/28 10:08:36;;;;;;;142.23;23.23;;;4.90;90.60;;;;;;5100413;28;20103;-57
2023/01/28 10:11:23;;;;;;;139.95;22.65;;;5.00;90.80;;;;;;5071433;28;20040;-57
2023/01/28 10:14:13;;;;;;;147.55;23.65;;;5.00;90.80;;;;;;5098901;28;20085;-56
2023/01/28 10:17:04;;;;;;;174.38;23.92;;;5.10;90.80;;;;;;5085911;28;20028;-56
2023/01/28 10:19:31;;;;;;;134.73;22.75;;;5.10;90.80;;;;;;5097852;28;20047;-56
2023/01/28 10:22:02;;;;;;;154.20;23.63;;;5.10;90.80;;;;;;5089230;28;20028;-56
2023/01/28 10:24:38;;;;;;;182.57;26.58;;;5.10;90.90;;;;;;5104910;28;20047;-56
2023/01/28 10:27:18;;;;;;;154.52;24.30;;;5.10;91.10;;;;;;5100450;28;20048;-57
2023/01/28 10:29:45;;;;;;;191.73;25.42;;;5.10;91.10;;;;;;5105931;28;20066;-59
2023/01/28 10:32:30;;;;;;;166.93;24.15;;;5.10;91.10;;;;;;5069627;28;20040;-56
2023/01/28 10:34:58;;;;;;;187.35;24.65;;;5.10;91.00;;;;;;5122378;28;20039;-57
2023/01/28 10:37:24;;;;;;;172.50;24.75;;;5.10;91.00;;;;;;5126908;28;20404;-57
2023/01/28 10:39:51;;;;;;;130.25;23.35;;;5.20;91.00;;;;;;5100368;28;20035;-57
2023/01/28 10:42:26;;;;;;;179.57;23.25;;;5.20;90.90;;;;;;5092783;28;20017;-56
2023/01/28 10:44:52;;;;;;;176.48;26.13;;;5.30;90.90;;;;;;5099522;28;20048;-57
2023/01/28 10:47:32;;;;;;;174.48;27.23;;;5.30;90.80;;;;;;5105189;28;20150;-57
2023/01/28 10:49:58;;;;;;;185.07;24.13;;;5.30;90.70;;;;;;5089674;28;20051;-57
2023/01/28 10:52:24;;;;;;;208.23;25.10;;;5.40;90.70;;;;;;5101711;28;20038;-56
2023/01/28 10:55:01;;;;;;;201.05;28.30;;;5.40;90.60;;;;;;5105411;28;20096;-56
2023/01/28 10:57:27;;;;;;;216.90;29.15;;;5.40;90.50;;;;;;5105992;28;20024;-57
2023/01/28 10:59:52;;;;;;;338.67;40.60;;;5.40;90.50;;;;;;5106444;28;20482;-57
2023/01/28 11:02:31;;;;;;;262.83;34.15;;;5.50;90.40;;;;;;5087547;28;20016;-57
2023/01/28 11:05:17;;;;;;;568.97;69.10;;;5.50;90.50;;;;;;5083181;28;20032;-57
2023/01/28 11:07:43;;;;;;;264.67;33.53;;;5.50;90.60;;;;;;5107222;28;20016;-57
2023/01/28 11:10:27;;;;;;;242.13;31.45;;;5.50;90.70;;;;;;5106125;28;20032;-56
2023/01/28 11:12:56;;;;;;;206.35;29.77;;;5.50;90.60;;;;;;5099073;28;20088;-56
2023/01/28 11:15:21;;;;;;;270.27;35.95;;;5.60;90.50;;;;;;5098161;28;20047;-56
2023/01/28 11:17:50;;;;;;;267.70;34.50;;;5.70;90.50;;;;;;5084797;28;20099;-57
2023/01/28 11:20:20;;;;;;;255.07;33.83;;;5.70;90.70;;;;;;5107667;28;20047;-57
2023/01/28 11:22:45;;;;;;;241.00;35.15;;;5.80;90.80;;;;;;5088422;28;20095;-57
2023/01/28 11:25:30;;;;;;;256.55;32.45;;;5.80;90.70;;;;;;5103121;28;20025;-57
2023/01/28 11:27:56;;;;;;;216.68;29.90;;;5.80;90.60;;;;;;5114068;28;20024;-56
2023/01/28 11:30:33;;;;;;;206.63;31.13;;;5.80;90.50;;;;;;5109526;28;20032;-56
2023/01/28 11:33:02;;;;;;;213.23;30.58;;;5.70;90.50;;;;;;5071117;28;20020;-56
2023/01/28 11:35:29;;;;;;;202.65;31.48;;;5.70;90.40;;;;;;5113145;28;20044;-56
2023/01/28 11:37:56;;;;;;;197.10;28.50;;;5.70;90.40;;;;;;5105980;28;20035;-54
2023/01/28 11:40:22;;;;;;;254.43;34.85;;;5.70;90.40;;;;;;5101046;28;20085;-54
2023/01/28 11:42:50;;;;;;;182.18;29.92;;;5.70;90.40;;;;;;5099884;28;20028;-54
2023/01/28 11:45:21;;;;;;;169.52;28.23;;;5.70;90.40;;;;;;5093188;28;20209;-54
2023/01/28 11:48:12;;;;;;;188.70;27.45;;;5.70;90.30;;;;;;5102416;28;20046;-54
2023/01/28 11:50:52;;;;;;;188.73;27.52;;;5.70;90.20;;;;;;5096601;28;20360;-54
2023/01/28 11:53:27;;;;;;;189.90;30.58;;;5.80;90.30;;;;;;5125453;28;20031;-54
2023/01/28 11:55:59;;;;;;;;;;;5.80;90.20;;;;;;5093156;28;20060;-54
2023/01/28 11:58:45;;;;;;;202.73;31.02;;;5.80;90.10;;;;;;5112075;28;19963;-54
2023/01/28 12:01:16;;;;;;;179.40;26.85;;;5.80;90.00;;;;;;5103329;28;20074;-54
2023/01/28 12:04:03;;;;;;;278.23;34.72;;;5.80;90.00;;;;;;5104286;28;20114;-55
2023/01/28 12:07:10;;;;;;;203.07;27.63;;;5.80;90.00;;;;;;5114173;28;20099;-55
2023/01/28 12:09:44;;;;;;;191.25;26.77;;;5.80;90.00;;;;;;5066768;28;20044;-55
2023/01/28 12:12:57;;;;;;;183.98;24.80;;;5.80;89.90;;;;;;5102530;28;20131;-54
2023/01/28 12:15:56;;;;;;;183.60;28.13;;;5.80;89.80;;;;;;5036124;28;20034;-54
2023/01/28 12:18:33;;;;;;;175.93;25.95;;;5.90;89.60;;;;;;5001883;28;20545;-55
2023/01/28 12:21:08;;;;;;;157.80;25.55;;;5.90;89.50;;;;;;5073717;28;20032;-54
2023/01/28 12:23:45;;;;;;;155.60;25.00;;;5.90;89.30;;;;;;5088078;28;20027;-54
2023/01/28 12:26:15;;;;;;;155.50;25.10;;;5.90;89.00;;;;;;5115648;28;20543;-54
2023/01/28 12:29:00;;;;;;;149.70;24.65;;;6.00;88.80;;;;;;5099147;28;20043;-54
2023/01/28 12:31:30;;;;;;;162.20;23.50;;;6.00;88.90;;;;;;5101493;28;20020;-55
2023/01/28 12:34:06;;;;;;;132.70;22.60;;;6.00;88.90;;;;;;5076217;28;20056;-54
2023/01/28 12:36:50;;;;;;;147.40;22.23;;;6.00;88.80;;;;;;5091852;28;20016;-55
2023/01/28 12:39:50;;;;;;;221.00;25.95;;;6.00;88.90;;;;;;5096305;28;20028;-55
2023/01/28 12:42:31;;;;;;;164.68;24.20;;;6.00;88.90;;;;;;5094393;28;20025;-56
2023/01/28 12:45:11;;;;;;;210.52;28.90;;;6.00;88.80;;;;;;5100628;28;20028;-57
2023/01/28 12:47:38;;;;;;;153.18;23.85;;;6.00;88.60;;;;;;5097022;28;20075;-57
2023/01/28 12:50:25;;;;;;;199.45;27.48;;;6.00;88.60;;;;;;5097526;28;20043;-57
2023/01/28 12:53:25;;;;;;;187.30;24.67;;;6.00;88.60;;;;;;5096141;28;20062;-57
2023/01/28 12:55:59;;;;;;;534.53;61.90;;;6.00;88.40;;;;;;5093805;28;20113;-57
2023/01/28 12:58:55;;;;;;;221.65;30.23;;;6.00;88.20;;;;;;5099144;28;20043;-56
2023/01/28 13:01:27;;;;;;;158.38;24.13;;;6.10;88.30;;;;;;5101970;28;20028;-57
2023/01/28 13:04:31;;;;;;;152.48;27.75;;;6.10;88.20;;;;;;5101483;28;20036;-56
2023/01/28 13:07:19;;;;;;;225.60;32.35;;;6.10;88.10;;;;;;5084904;28;20158;-57
2023/01/28 13:10:03;;;;;;;231.02;31.17;;;6.20;88.10;;;;;;5085208;28;20353;-57
2023/01/28 13:12:29;;;;;;;215.35;30.90;;;6.20;87.70;;;;;;5093685;28;20024;-57
2023/01/28 13:14:55;;;;;;;232.57;30.42;;;6.20;87.50;;;;;;5101366;28;20036;-56
2023/01/28 13:17:29;;;;;;;178.70;25.35;;;6.30;87.70;;;;;;5093481;28;20111;-56
2023/01/28 13:19:54;;;;;;;310.65;36.35;;;6.30;87.80;;;;;;5100637;28;20039;-56
2023/01/28 13:22:34;;;;;;;164.10;24.75;;;6.30;87.60;;;;;;5101392;28;20394;-57
2023/01/28 13:25:18;;;;;;;184.32;26.85;;;6.30;87.50;;;;;;5082222;28;20029;-56